sensor_id;sensor_type;location;lat;lon;timestamp;P1;P2;P0
30713;PMS7003;17465;47.934;33.430;2022-09-09T00:02:18;20.75;17.75;11.25
30713;PMS7003;17465;47.934;33.430;2022-09-09T00:04:58;18.50;17.25;13.50
30713;PMS7003;17465;47.934;33.430;2022-09-09T00:27:19;20.00;17.75;12.00
30713;PMS7003;17465;47.934;33.430;2022-09-09T00:30:16;28.00;24.00;16.00
30713;PMS7003;17465;47.934;33.430;2022-09-09T00:32:49;19.75;19.75;13.00
30713;PMS7003;17465;47.934;33.430;2022-09-09T00:35:22;22.25;21.25;13.50
30713;PMS7003;17465;47.934;33.430;2022-09-09T00:37:56;23.75;22.00;15.00
30713;PMS7003;17465;47.934;33.430;2022-09-09T00:40:48;27.25;24.50;13.25
30713;PMS7003;17465;47.934;33.430;2022-09-09T00:48:46;24.00;22.50;16.00
30713;PMS7003;17465;47.934;33.430;2022-09-09T00:51:41;23.00;23.00;14.50
30713;PMS7003;17465;47.934;33.430;2022-09-09T00:54:24;24.50;24.50;16.25
30713;PMS7003;17465;47.934;33.430;2022-09-09T01:05:59;21.75;20.50;14.00
30713;PMS7003;17465;47.934;33.430;2022-09-09T01:11:07;30.00;28.75;17.00
30713;PMS7003;17465;47.934;33.430;2022-09-09T01:13:43;28.75;26.75;17.75
30713;PMS7003;17465;47.934;33.430;2022-09-09T01:16:17;28.25;26.00;18.50
30713;PMS7003;17465;47.934;33.430;2022-09-09T01:18:49;28.25;26.50;19.50
30713;PMS7003;17465;47.934;33.430;2022-09-09T01:26:54;35.25;31.50;21.00
30713;PMS7003;17465;47.934;33.430;2022-09-09T01:29:26;33.75;32.75;21.00
30713;PMS7003;17465;47.934;33.430;2022-09-09T01:31:59;37.00;33.50;21.00
30713;PMS7003;17465;47.934;33.430;2022-09-09T01:34:35;32.00;31.00;19.25
30713;PMS7003;17465;47.934;33.430;2022-09-09T01:37:24;29.50;29.50;18.25
30713;PMS7003;17465;47.934;33.430;2022-09-09T01:39:55;25.50;24.25;20.25
30713;PMS7003;17465;47.934;33.430;2022-09-09T01:42:25;35.00;33.00;21.00
30713;PMS7003;17465;47.934;33.430;2022-09-09T01:44:56;29.50;29.00;19.75
30713;PMS7003;17465;47.934;33.430;2022-09-09T01:47:27;31.75;28.75;17.75
30713;PMS7003;17465;47.934;33.430;2022-09-09T01:49:57;31.75;31.00;19.00
30713;PMS7003;17465;47.934;33.430;2022-09-09T01:52:28;32.25;31.25;19.50
30713;PMS7003;17465;47.934;33.430;2022-09-09T01:55:01;36.00;32.50;20.50
30713;PMS7003;17465;47.934;33.430;2022-09-09T01:57:45;35.00;32.00;20.50
30713;PMS7003;17465;47.934;33.430;2022-09-09T02:00:23;32.50;31.50;19.25
30713;PMS7003;17465;47.934;33.430;2022-09-09T02:05:34;29.25;28.25;19.00
30713;PMS7003;17465;47.934;33.430;2022-09-09T02:10:51;34.50;31.50;19.75
30713;PMS7003;17465;47.934;33.430;2022-09-09T02:13:21;32.75;32.00;19.50
30713;PMS7003;17465;47.934;33.430;2022-09-09T02:15:54;27.75;27.75;18.50
30713;PMS7003;17465;47.934;33.430;2022-09-09T02:18:39;35.00;32.25;19.00
30713;PMS7003;17465;47.934;33.430;2022-09-09T02:24:02;29.75;28.50;18.50
30713;PMS7003;17465;47.934;33.430;2022-09-09T02:26:39;28.00;25.00;17.00
30713;PMS7003;17465;47.934;33.430;2022-09-09T02:29:12;28.25;28.25;17.75
30713;PMS7003;17465;47.934;33.430;2022-09-09T02:31:44;25.50;24.75;14.00
30713;PMS7003;17465;47.934;33.430;2022-09-09T02:34:18;28.25;25.50;18.00
30713;PMS7003;17465;47.934;33.430;2022-09-09T02:36:51;24.50;24.50;16.75
30713;PMS7003;17465;47.934;33.430;2022-09-09T02:39:24;25.25;24.75;18.00
30713;PMS7003;17465;47.934;33.430;2022-09-09T02:41:55;26.00;26.00;18.00
30713;PMS7003;17465;47.934;33.430;2022-09-09T02:44:25;31.00;28.00;16.50
30713;PMS7003;17465;47.934;33.430;2022-09-09T02:52:19;27.25;24.75;17.75
30713;PMS7003;17465;47.934;33.430;2022-09-09T02:54:50;36.75;31.00;19.25
30713;PMS7003;17465;47.934;33.430;2022-09-09T02:57:24;29.50;28.25;19.75
30713;PMS7003;17465;47.934;33.430;2022-09-09T03:00:00;30.50;29.25;18.00
30713;PMS7003;17465;47.934;33.430;2022-09-09T03:02:31;30.50;30.50;20.25
30713;PMS7003;17465;47.934;33.430;2022-09-09T03:05:01;33.50;31.75;20.25
30713;PMS7003;17465;47.934;33.430;2022-09-09T03:07:32;33.50;32.25;21.00
30713;PMS7003;17465;47.934;33.430;2022-09-09T03:10:02;34.00;32.25;21.00
30713;PMS7003;17465;47.934;33.430;2022-09-09T03:12:33;36.00;32.50;22.25
30713;PMS7003;17465;47.934;33.430;2022-09-09T03:15:03;38.75;35.00;23.00
30713;PMS7003;17465;47.934;33.430;2022-09-09T03:17:41;47.75;39.50;25.00
30713;PMS7003;17465;47.934;33.430;2022-09-09T03:20:12;40.25;36.75;22.75
30713;PMS7003;17465;47.934;33.430;2022-09-09T03:22:42;45.00;38.25;23.25
30713;PMS7003;17465;47.934;33.430;2022-09-09T03:25:13;52.25;42.00;26.00
30713;PMS7003;17465;47.934;33.430;2022-09-09T03:27:43;56.75;43.25;29.00
30713;PMS7003;17465;47.934;33.430;2022-09-09T03:30:14;54.75;43.75;28.25
30713;PMS7003;17465;47.934;33.430;2022-09-09T03:32:45;53.50;46.00;28.00
30713;PMS7003;17465;47.934;33.430;2022-09-09T03:35:16;55.75;47.25;29.75
30713;PMS7003;17465;47.934;33.430;2022-09-09T03:37:47;61.25;50.25;30.75
30713;PMS7003;17465;47.934;33.430;2022-09-09T03:40:18;54.75;45.25;29.00
30713;PMS7003;17465;47.934;33.430;2022-09-09T03:42:48;55.00;45.00;28.00
30713;PMS7003;17465;47.934;33.430;2022-09-09T03:45:19;61.25;48.50;29.50
30713;PMS7003;17465;47.934;33.430;2022-09-09T03:47:49;51.00;42.50;27.50
30713;PMS7003;17465;47.934;33.430;2022-09-09T03:50:20;57.00;47.75;29.75
30713;PMS7003;17465;47.934;33.430;2022-09-09T03:52:50;62.00;50.00;31.25
30713;PMS7003;17465;47.934;33.430;2022-09-09T03:55:21;61.25;51.00;30.00
30713;PMS7003;17465;47.934;33.430;2022-09-09T03:57:51;57.00;48.00;28.75
30713;PMS7003;17465;47.934;33.430;2022-09-09T04:00:21;65.75;51.00;31.50
30713;PMS7003;17465;47.934;33.430;2022-09-09T04:02:52;69.25;54.25;33.75
30713;PMS7003;17465;47.934;33.430;2022-09-09T04:05:23;65.50;53.50;33.50
30713;PMS7003;17465;47.934;33.430;2022-09-09T04:07:53;63.25;50.50;33.25
30713;PMS7003;17465;47.934;33.430;2022-09-09T04:10:23;65.25;52.25;32.00
30713;PMS7003;17465;47.934;33.430;2022-09-09T04:13:03;62.00;50.25;31.00
30713;PMS7003;17465;47.934;33.430;2022-09-09T04:15:29;68.00;54.25;33.25
30713;PMS7003;17465;47.934;33.430;2022-09-09T04:18:00;53.50;43.25;28.75
30713;PMS7003;17465;47.934;33.430;2022-09-09T04:20:31;66.00;51.75;32.25
30713;PMS7003;17465;47.934;33.430;2022-09-09T04:23:02;67.75;53.50;32.50
30713;PMS7003;17465;47.934;33.430;2022-09-09T04:25:34;64.00;50.75;31.00
30713;PMS7003;17465;47.934;33.430;2022-09-09T04:28:04;65.00;52.00;31.75
30713;PMS7003;17465;47.934;33.430;2022-09-09T04:30:35;66.00;53.75;34.00
30713;PMS7003;17465;47.934;33.430;2022-09-09T04:33:05;65.75;52.25;32.00
30713;PMS7003;17465;47.934;33.430;2022-09-09T04:35:37;66.50;53.50;33.00
30713;PMS7003;17465;47.934;33.430;2022-09-09T04:38:08;71.25;56.75;34.25
30713;PMS7003;17465;47.934;33.430;2022-09-09T04:40:38;68.75;55.50;35.00
30713;PMS7003;17465;47.934;33.430;2022-09-09T04:43:10;69.00;56.00;33.50
30713;PMS7003;17465;47.934;33.430;2022-09-09T04:45:42;66.25;53.75;35.00
30713;PMS7003;17465;47.934;33.430;2022-09-09T04:48:14;68.50;55.00;33.75
30713;PMS7003;17465;47.934;33.430;2022-09-09T04:50:53;66.75;53.25;33.75
30713;PMS7003;17465;47.934;33.430;2022-09-09T04:53:32;73.25;59.50;36.00
30713;PMS7003;17465;47.934;33.430;2022-09-09T04:56:04;69.25;55.00;34.75
30713;PMS7003;17465;47.934;33.430;2022-09-09T04:58:39;67.25;53.50;33.25
30713;PMS7003;17465;47.934;33.430;2022-09-09T05:01:14;63.50;49.75;33.00
30713;PMS7003;17465;47.934;33.430;2022-09-09T05:03:46;66.75;54.75;34.75
30713;PMS7003;17465;47.934;33.430;2022-09-09T05:06:18;68.75;56.00;34.25
30713;PMS7003;17465;47.934;33.430;2022-09-09T05:08:50;65.50;53.00;34.25
30713;PMS7003;17465;47.934;33.430;2022-09-09T05:11:22;65.25;50.50;31.25
30713;PMS7003;17465;47.934;33.430;2022-09-09T05:13:57;64.00;49.25;31.75
30713;PMS7003;17465;47.934;33.430;2022-09-09T05:16:28;65.00;50.75;31.75
30713;PMS7003;17465;47.934;33.430;2022-09-09T05:19:19;63.75;50.25;31.00
30713;PMS7003;17465;47.934;33.430;2022-09-09T05:21:49;61.25;49.00;29.75
30713;PMS7003;17465;47.934;33.430;2022-09-09T05:24:19;58.75;48.50;30.00
30713;PMS7003;17465;47.934;33.430;2022-09-09T05:26:50;58.75;47.00;29.75
30713;PMS7003;17465;47.934;33.430;2022-09-09T05:29:20;49.00;40.75;27.00
30713;PMS7003;17465;47.934;33.430;2022-09-09T05:31:50;48.75;41.00;26.25
30713;PMS7003;17465;47.934;33.430;2022-09-09T05:34:21;49.00;41.00;26.25
30713;PMS7003;17465;47.934;33.430;2022-09-09T05:36:51;38.25;34.75;21.25
30713;PMS7003;17465;47.934;33.430;2022-09-09T05:39:23;36.00;32.00;21.25
30713;PMS7003;17465;47.934;33.430;2022-09-09T05:41:54;44.50;36.75;23.00
30713;PMS7003;17465;47.934;33.430;2022-09-09T05:44:24;43.00;36.00;23.75
30713;PMS7003;17465;47.934;33.430;2022-09-09T05:46:57;42.50;35.75;22.25
30713;PMS7003;17465;47.934;33.430;2022-09-09T05:49:29;46.50;38.50;25.25
30713;PMS7003;17465;47.934;33.430;2022-09-09T05:52:00;48.00;40.00;27.00
30713;PMS7003;17465;47.934;33.430;2022-09-09T05:54:32;49.50;42.00;29.50
30713;PMS7003;17465;47.934;33.430;2022-09-09T05:57:02;53.75;44.50;28.75
30713;PMS7003;17465;47.934;33.430;2022-09-09T05:59:32;48.60;40.40;26.20
30713;PMS7003;17465;47.934;33.430;2022-09-09T06:02:03;44.80;38.20;26.00
30713;PMS7003;17465;47.934;33.430;2022-09-09T06:04:35;40.80;34.20;21.80
30713;PMS7003;17465;47.934;33.430;2022-09-09T06:07:08;42.00;36.20;23.20
30713;PMS7003;17465;47.934;33.430;2022-09-09T06:09:39;34.80;32.20;20.40
30713;PMS7003;17465;47.934;33.430;2022-09-09T06:12:11;36.60;31.60;21.20
30713;PMS7003;17465;47.934;33.430;2022-09-09T06:14:42;32.80;29.80;20.40
30713;PMS7003;17465;47.934;33.430;2022-09-09T06:17:17;31.40;29.00;19.00
30713;PMS7003;17465;47.934;33.430;2022-09-09T06:19:47;31.40;28.20;20.20
30713;PMS7003;17465;47.934;33.430;2022-09-09T06:22:18;28.80;25.20;16.80
30713;PMS7003;17465;47.934;33.430;2022-09-09T06:24:48;21.40;20.40;14.20
30713;PMS7003;17465;47.934;33.430;2022-09-09T06:27:19;27.40;26.20;18.60
30713;PMS7003;17465;47.934;33.430;2022-09-09T06:29:49;28.60;26.80;18.00
30713;PMS7003;17465;47.934;33.430;2022-09-09T06:32:19;31.80;28.40;19.80
30713;PMS7003;17465;47.934;33.430;2022-09-09T06:34:56;22.20;22.20;13.00
30713;PMS7003;17465;47.934;33.430;2022-09-09T06:37:22;14.40;14.40;9.40
30713;PMS7003;17465;47.934;33.430;2022-09-09T06:39:53;14.60;14.60;10.60
30713;PMS7003;17465;47.934;33.430;2022-09-09T06:42:23;17.40;17.00;12.20
30713;PMS7003;17465;47.934;33.430;2022-09-09T06:44:56;14.40;14.40;10.00
30713;PMS7003;17465;47.934;33.430;2022-09-09T06:47:28;16.60;15.20;10.40
30713;PMS7003;17465;47.934;33.430;2022-09-09T06:49:58;15.00;15.00;10.80
30713;PMS7003;17465;47.934;33.430;2022-09-09T06:52:29;17.20;17.20;11.40
30713;PMS7003;17465;47.934;33.430;2022-09-09T06:55:00;17.80;15.80;11.60
30713;PMS7003;17465;47.934;33.430;2022-09-09T06:57:36;12.20;11.20;7.80
30713;PMS7003;17465;47.934;33.430;2022-09-09T07:00:07;13.60;12.80;9.80
30713;PMS7003;17465;47.934;33.430;2022-09-09T07:02:38;13.60;13.60;11.20
30713;PMS7003;17465;47.934;33.430;2022-09-09T07:05:09;15.80;15.00;9.60
30713;PMS7003;17465;47.934;33.430;2022-09-09T07:07:40;15.60;15.60;11.40
30713;PMS7003;17465;47.934;33.430;2022-09-09T07:10:10;15.40;14.60;12.00
30713;PMS7003;17465;47.934;33.430;2022-09-09T07:12:42;13.40;13.40;9.80
30713;PMS7003;17465;47.934;33.430;2022-09-09T07:15:12;12.60;12.60;8.80
30713;PMS7003;17465;47.934;33.430;2022-09-09T07:17:43;17.80;16.40;10.00
30713;PMS7003;17465;47.934;33.430;2022-09-09T07:20:13;19.20;18.80;13.40
30713;PMS7003;17465;47.934;33.430;2022-09-09T07:22:44;15.40;15.40;10.40
30713;PMS7003;17465;47.934;33.430;2022-09-09T07:25:14;12.80;11.80;8.80
30713;PMS7003;17465;47.934;33.430;2022-09-09T07:27:46;14.20;12.60;9.20
30713;PMS7003;17465;47.934;33.430;2022-09-09T07:30:16;14.20;14.20;9.20
30713;PMS7003;17465;47.934;33.430;2022-09-09T07:32:50;13.40;12.80;9.20
30713;PMS7003;17465;47.934;33.430;2022-09-09T07:35:21;13.80;13.20;10.60
30713;PMS7003;17465;47.934;33.430;2022-09-09T07:37:51;11.60;11.60;8.20
30713;PMS7003;17465;47.934;33.430;2022-09-09T07:40:25;14.20;13.40;9.00
30713;PMS7003;17465;47.934;33.430;2022-09-09T07:42:57;13.80;10.00;8.00
30713;PMS7003;17465;47.934;33.430;2022-09-09T07:45:27;15.00;15.00;9.20
30713;PMS7003;17465;47.934;33.430;2022-09-09T07:47:58;21.60;21.00;15.00
30713;PMS7003;17465;47.934;33.430;2022-09-09T07:50:28;14.00;14.00;10.40
30713;PMS7003;17465;47.934;33.430;2022-09-09T07:52:59;14.60;14.20;9.80
30713;PMS7003;17465;47.934;33.430;2022-09-09T07:55:32;16.20;16.20;11.40
30713;PMS7003;17465;47.934;33.430;2022-09-09T07:58:02;15.00;15.00;9.80
30713;PMS7003;17465;47.934;33.430;2022-09-09T08:00:33;12.60;12.60;10.60
30713;PMS7003;17465;47.934;33.430;2022-09-09T08:03:06;14.80;13.80;11.00
30713;PMS7003;17465;47.934;33.430;2022-09-09T08:05:37;14.60;13.20;10.00
30713;PMS7003;17465;47.934;33.430;2022-09-09T08:08:08;16.00;15.80;11.00
30713;PMS7003;17465;47.934;33.430;2022-09-09T08:10:38;14.00;13.60;12.00
30713;PMS7003;17465;47.934;33.430;2022-09-09T08:13:09;17.40;17.20;12.20
30713;PMS7003;17465;47.934;33.430;2022-09-09T08:15:42;16.20;15.40;10.80
30713;PMS7003;17465;47.934;33.430;2022-09-09T08:18:13;16.60;15.20;11.20
30713;PMS7003;17465;47.934;33.430;2022-09-09T08:20:43;19.80;18.60;12.60
30713;PMS7003;17465;47.934;33.430;2022-09-09T08:23:13;20.20;16.20;10.20
30713;PMS7003;17465;47.934;33.430;2022-09-09T08:25:44;19.20;18.40;12.20
30713;PMS7003;17465;47.934;33.430;2022-09-09T08:28:14;15.40;15.00;10.60
30713;PMS7003;17465;47.934;33.430;2022-09-09T08:30:45;17.00;17.00;12.80
30713;PMS7003;17465;47.934;33.430;2022-09-09T08:33:15;14.40;14.20;9.00
30713;PMS7003;17465;47.934;33.430;2022-09-09T08:35:51;14.20;11.80;8.40
30713;PMS7003;17465;47.934;33.430;2022-09-09T08:38:22;16.00;14.40;10.20
30713;PMS7003;17465;47.934;33.430;2022-09-09T08:40:52;13.40;13.40;9.40
30713;PMS7003;17465;47.934;33.430;2022-09-09T08:43:26;13.20;13.20;9.20
30713;PMS7003;17465;47.934;33.430;2022-09-09T08:48:47;13.80;13.20;10.80
30713;PMS7003;17465;47.934;33.430;2022-09-09T08:51:14;10.00;10.00;7.60
30713;PMS7003;17465;47.934;33.430;2022-09-09T08:53:47;14.60;13.00;9.60
30713;PMS7003;17465;47.934;33.430;2022-09-09T08:56:21;13.00;13.00;8.60
30713;PMS7003;17465;47.934;33.430;2022-09-09T08:58:55;12.80;12.80;10.20
30713;PMS7003;17465;47.934;33.430;2022-09-09T09:10:49;15.40;14.60;11.80
30713;PMS7003;17465;47.934;33.430;2022-09-09T09:13:45;13.80;13.80;11.20
30713;PMS7003;17465;47.934;33.430;2022-09-09T09:16:23;18.00;15.00;12.00
30713;PMS7003;17465;47.934;33.430;2022-09-09T09:19:08;16.80;16.60;12.00
30713;PMS7003;17465;47.934;33.430;2022-09-09T09:22:10;13.00;13.00;7.80
30713;PMS7003;17465;47.934;33.430;2022-09-09T09:28:33;14.80;14.80;10.60
30713;PMS7003;17465;47.934;33.430;2022-09-09T09:30:42;13.00;12.60;10.00
30713;PMS7003;17465;47.934;33.430;2022-09-09T09:35:55;9.20;9.20;8.20
30713;PMS7003;17465;47.934;33.430;2022-09-09T09:38:26;13.80;13.40;8.80
30713;PMS7003;17465;47.934;33.430;2022-09-09T09:40:59;12.00;12.00;9.20
30713;PMS7003;17465;47.934;33.430;2022-09-09T09:43:34;14.00;13.80;11.80
30713;PMS7003;17465;47.934;33.430;2022-09-09T09:46:17;14.60;14.00;11.00
30713;PMS7003;17465;47.934;33.430;2022-09-09T09:48:58;16.00;15.20;11.60
30713;PMS7003;17465;47.934;33.430;2022-09-09T09:51:33;17.20;17.00;11.60
30713;PMS7003;17465;47.934;33.430;2022-09-09T09:56:56;15.20;14.20;11.00
30713;PMS7003;17465;47.934;33.430;2022-09-09T09:59:47;14.80;14.20;10.40
30713;PMS7003;17465;47.934;33.430;2022-09-09T10:02:22;14.60;13.00;10.00
30713;PMS7003;17465;47.934;33.430;2022-09-09T10:07:46;13.20;12.20;8.20
30713;PMS7003;17465;47.934;33.430;2022-09-09T10:10:24;13.40;13.00;10.20
30713;PMS7003;17465;47.934;33.430;2022-09-09T10:13:07;13.60;13.60;11.60
30713;PMS7003;17465;47.934;33.430;2022-09-09T10:18:57;11.80;11.80;8.20
30713;PMS7003;17465;47.934;33.430;2022-09-09T10:30:46;15.20;15.20;11.20
30713;PMS7003;17465;47.934;33.430;2022-09-09T10:36:13;16.80;16.20;12.80
30713;PMS7003;17465;47.934;33.430;2022-09-09T10:40:16;16.40;16.40;11.20
30713;PMS7003;17465;47.934;33.430;2022-09-09T10:44:24;16.00;16.00;11.40
30713;PMS7003;17465;47.934;33.430;2022-09-09T10:55:28;17.00;17.00;13.60
30713;PMS7003;17465;47.934;33.430;2022-09-09T10:57:58;15.80;15.80;12.00
30713;PMS7003;17465;47.934;33.430;2022-09-09T11:00:40;11.20;11.20;8.00
30713;PMS7003;17465;47.934;33.430;2022-09-09T11:03:17;13.80;13.80;11.20
30713;PMS7003;17465;47.934;33.430;2022-09-09T11:05:49;14.00;14.00;11.40
30713;PMS7003;17465;47.934;33.430;2022-09-09T11:08:25;16.80;16.80;12.60
30713;PMS7003;17465;47.934;33.430;2022-09-09T11:13:45;17.00;17.00;12.00
30713;PMS7003;17465;47.934;33.430;2022-09-09T11:19:55;16.80;16.80;12.20
30713;PMS7003;17465;47.934;33.430;2022-09-09T11:22:07;15.60;15.60;11.80
30713;PMS7003;17465;47.934;33.430;2022-09-09T11:30:21;17.80;17.80;13.80
30713;PMS7003;17465;47.934;33.430;2022-09-09T11:33:04;17.00;16.40;13.20
30713;PMS7003;17465;47.934;33.430;2022-09-09T11:35:55;18.40;16.60;12.80
30713;PMS7003;17465;47.934;33.430;2022-09-09T11:41:16;13.60;13.60;11.80
30713;PMS7003;17465;47.934;33.430;2022-09-09T11:43:50;17.00;16.40;12.00
30713;PMS7003;17465;47.934;33.430;2022-09-09T11:46:40;19.60;19.60;14.00
30713;PMS7003;17465;47.934;33.430;2022-09-09T11:49:26;17.60;17.00;13.00
30713;PMS7003;17465;47.934;33.430;2022-09-09T11:51:59;17.40;17.40;12.40
30713;PMS7003;17465;47.934;33.430;2022-09-09T11:54:33;15.40;15.20;12.40
30713;PMS7003;17465;47.934;33.430;2022-09-09T11:57:14;16.00;16.00;12.80
30713;PMS7003;17465;47.934;33.430;2022-09-09T11:59:39;14.80;14.40;11.40
30713;PMS7003;17465;47.934;33.430;2022-09-09T12:02:18;17.00;17.00;11.40
30713;PMS7003;17465;47.934;33.430;2022-09-09T12:04:56;15.00;15.00;11.40
30713;PMS7003;17465;47.934;33.430;2022-09-09T12:07:41;19.80;19.40;15.20
30713;PMS7003;17465;47.934;33.430;2022-09-09T12:10:25;14.40;14.40;11.80
30713;PMS7003;17465;47.934;33.430;2022-09-09T12:13:15;15.20;15.00;10.60
30713;PMS7003;17465;47.934;33.430;2022-09-09T12:15:55;18.00;16.80;13.20
30713;PMS7003;17465;47.934;33.430;2022-09-09T12:18:32;14.00;12.80;9.20
30713;PMS7003;17465;47.934;33.430;2022-09-09T12:21:21;16.80;16.60;13.60
30713;PMS7003;17465;47.934;33.430;2022-09-09T12:23:54;18.20;17.80;13.40
30713;PMS7003;17465;47.934;33.430;2022-09-09T12:26:32;18.20;18.20;14.20
30713;PMS7003;17465;47.934;33.430;2022-09-09T12:29:18;19.40;18.00;13.20
30713;PMS7003;17465;47.934;33.430;2022-09-09T12:40:30;15.40;15.40;10.20
30713;PMS7003;17465;47.934;33.430;2022-09-09T12:43:21;15.40;15.40;11.00
30713;PMS7003;17465;47.934;33.430;2022-09-09T12:45:54;17.80;17.80;13.00
30713;PMS7003;17465;47.934;33.430;2022-09-09T12:48:32;17.40;16.60;11.40
30713;PMS7003;17465;47.934;33.430;2022-09-09T12:51:00;19.60;17.80;12.40
30713;PMS7003;17465;47.934;33.430;2022-09-09T12:53:33;18.80;16.20;12.60
30713;PMS7003;17465;47.934;33.430;2022-09-09T12:56:07;17.60;17.40;14.60
30713;PMS7003;17465;47.934;33.430;2022-09-09T12:58:39;16.40;16.40;11.80
30713;PMS7003;17465;47.934;33.430;2022-09-09T13:01:27;15.00;14.40;10.80
30713;PMS7003;17465;47.934;33.430;2022-09-09T13:04:01;17.80;15.80;11.80
30713;PMS7003;17465;47.934;33.430;2022-09-09T13:06:32;14.20;14.20;10.00
30713;PMS7003;17465;47.934;33.430;2022-09-09T13:09:05;14.40;14.40;10.40
30713;PMS7003;17465;47.934;33.430;2022-09-09T13:11:38;13.20;13.20;9.60
30713;PMS7003;17465;47.934;33.430;2022-09-09T13:14:26;14.80;14.80;11.80
30713;PMS7003;17465;47.934;33.430;2022-09-09T13:17:17;17.40;16.20;12.00
30713;PMS7003;17465;47.934;33.430;2022-09-09T13:19:56;17.00;17.00;10.80
30713;PMS7003;17465;47.934;33.430;2022-09-09T13:25:17;13.80;12.20;9.80
30713;PMS7003;17465;47.934;33.430;2022-09-09T13:27:54;16.80;16.80;13.00
30713;PMS7003;17465;47.934;33.430;2022-09-09T13:30:34;16.20;16.20;11.80
30713;PMS7003;17465;47.934;33.430;2022-09-09T13:35:47;20.00;19.00;12.40
30713;PMS7003;17465;47.934;33.430;2022-09-09T13:41:22;20.00;19.00;13.20
30713;PMS7003;17465;47.934;33.430;2022-09-09T13:43:55;15.40;15.00;12.00
30713;PMS7003;17465;47.934;33.430;2022-09-09T13:51:46;18.00;18.00;13.20
30713;PMS7003;17465;47.934;33.430;2022-09-09T13:54:23;21.40;18.60;13.40
30713;PMS7003;17465;47.934;33.430;2022-09-09T13:56:53;21.40;20.20;13.40
30713;PMS7003;17465;47.934;33.430;2022-09-09T13:59:27;22.80;21.00;13.40
30713;PMS7003;17465;47.934;33.430;2022-09-09T14:01:58;24.00;23.40;17.40
30713;PMS7003;17465;47.934;33.430;2022-09-09T14:04:28;22.80;17.40;13.00
30713;PMS7003;17465;47.934;33.430;2022-09-09T14:06:58;15.60;15.60;7.20
30713;PMS7003;17465;47.934;33.430;2022-09-09T14:09:29;27.00;25.00;16.80
30713;PMS7003;17465;47.934;33.430;2022-09-09T14:11:59;21.80;20.60;13.40
30713;PMS7003;17465;47.934;33.430;2022-09-09T14:14:30;20.20;20.20;13.40
30713;PMS7003;17465;47.934;33.430;2022-09-09T14:17:00;22.60;19.80;14.00
30713;PMS7003;17465;47.934;33.430;2022-09-09T14:19:32;18.80;18.80;13.00
30713;PMS7003;17465;47.934;33.430;2022-09-09T14:22:03;21.40;20.80;14.80
30713;PMS7003;17465;47.934;33.430;2022-09-09T14:24:37;19.40;18.80;13.80
30713;PMS7003;17465;47.934;33.430;2022-09-09T14:27:07;19.40;18.60;13.80
30713;PMS7003;17465;47.934;33.430;2022-09-09T14:29:37;22.00;22.00;15.20
30713;PMS7003;17465;47.934;33.430;2022-09-09T14:32:08;22.80;22.80;16.00
30713;PMS7003;17465;47.934;33.430;2022-09-09T14:34:41;27.00;25.40;19.40
30713;PMS7003;17465;47.934;33.430;2022-09-09T14:37:11;29.60;26.40;18.20
30713;PMS7003;17465;47.934;33.430;2022-09-09T14:39:42;25.40;24.20;17.00
30713;PMS7003;17465;47.934;33.430;2022-09-09T14:42:14;21.00;20.00;16.20
30713;PMS7003;17465;47.934;33.430;2022-09-09T14:44:44;24.00;23.00;15.20
30713;PMS7003;17465;47.934;33.430;2022-09-09T14:47:15;24.80;24.60;15.60
30713;PMS7003;17465;47.934;33.430;2022-09-09T14:49:45;22.60;21.80;17.20
30713;PMS7003;17465;47.934;33.430;2022-09-09T14:52:16;24.40;23.00;16.40
30713;PMS7003;17465;47.934;33.430;2022-09-09T14:54:47;21.00;19.60;14.00
30713;PMS7003;17465;47.934;33.430;2022-09-09T14:57:19;20.80;18.80;14.60
30713;PMS7003;17465;47.934;33.430;2022-09-09T14:59:53;16.00;15.00;10.60
30713;PMS7003;17465;47.934;33.430;2022-09-09T15:02:24;20.60;18.60;14.60
30713;PMS7003;17465;47.934;33.430;2022-09-09T15:05:08;21.00;21.00;15.20
30713;PMS7003;17465;47.934;33.430;2022-09-09T15:07:39;26.00;24.40;19.00
30713;PMS7003;17465;47.934;33.430;2022-09-09T15:10:09;24.80;22.20;16.40
30713;PMS7003;17465;47.934;33.430;2022-09-09T15:12:40;27.00;26.60;20.00
30713;PMS7003;17465;47.934;33.430;2022-09-09T15:15:11;29.40;27.20;19.00
30713;PMS7003;17465;47.934;33.430;2022-09-09T15:17:44;31.60;30.00;22.00
30713;PMS7003;17465;47.934;33.430;2022-09-09T15:20:14;31.40;29.60;20.00
30713;PMS7003;17465;47.934;33.430;2022-09-09T15:22:48;35.40;31.60;22.60
30713;PMS7003;17465;47.934;33.430;2022-09-09T15:25:18;38.00;33.75;22.75
30713;PMS7003;17465;47.934;33.430;2022-09-09T15:27:52;34.00;30.75;22.00
30713;PMS7003;17465;47.934;33.430;2022-09-09T15:30:22;38.00;33.50;23.00
30713;PMS7003;17465;47.934;33.430;2022-09-09T15:32:53;38.50;32.75;22.75
30713;PMS7003;17465;47.934;33.430;2022-09-09T15:35:26;36.75;33.50;22.50
30713;PMS7003;17465;47.934;33.430;2022-09-09T15:37:55;43.50;37.50;24.50
30713;PMS7003;17465;47.934;33.430;2022-09-09T15:40:26;47.00;39.75;27.00
30713;PMS7003;17465;47.934;33.430;2022-09-09T15:42:56;44.00;36.50;24.75
30713;PMS7003;17465;47.934;33.430;2022-09-09T15:45:26;43.50;37.00;24.00
30713;PMS7003;17465;47.934;33.430;2022-09-09T15:47:57;32.50;30.50;22.00
30713;PMS7003;17465;47.934;33.430;2022-09-09T15:50:29;34.00;31.00;20.75
30713;PMS7003;17465;47.934;33.430;2022-09-09T15:52:59;32.20;30.80;20.00
30713;PMS7003;17465;47.934;33.430;2022-09-09T15:55:30;32.60;30.20;20.80
30713;PMS7003;17465;47.934;33.430;2022-09-09T15:58:02;36.50;32.00;22.00
30713;PMS7003;17465;47.934;33.430;2022-09-09T16:00:32;32.75;30.25;21.75
30713;PMS7003;17465;47.934;33.430;2022-09-09T16:03:03;31.60;29.00;21.00
30713;PMS7003;17465;47.934;33.430;2022-09-09T16:05:34;29.60;26.40;17.00
30713;PMS7003;17465;47.934;33.430;2022-09-09T16:08:04;25.40;25.00;19.20
30713;PMS7003;17465;47.934;33.430;2022-09-09T16:10:35;29.75;29.00;18.75
30713;PMS7003;17465;47.934;33.430;2022-09-09T16:13:07;32.75;30.50;21.25
30713;PMS7003;17465;47.934;33.430;2022-09-09T16:15:38;34.00;32.00;21.00
30713;PMS7003;17465;47.934;33.430;2022-09-09T16:18:08;32.75;29.25;20.25
30713;PMS7003;17465;47.934;33.430;2022-09-09T16:20:40;34.25;30.75;19.50
30713;PMS7003;17465;47.934;33.430;2022-09-09T16:23:10;38.25;32.00;21.75
30713;PMS7003;17465;47.934;33.430;2022-09-09T16:25:41;39.50;34.75;24.25
30713;PMS7003;17465;47.934;33.430;2022-09-09T16:28:11;34.50;32.25;22.50
30713;PMS7003;17465;47.934;33.430;2022-09-09T16:30:44;42.00;33.25;22.00
30713;PMS7003;17465;47.934;33.430;2022-09-09T16:33:17;32.75;30.25;20.75
30713;PMS7003;17465;47.934;33.430;2022-09-09T16:35:48;26.25;24.25;16.25